首页
METAR-TAF:

METAR-TAF

机场 :

拉姆施泰因空军基地, 德国

纬度: 49-26N, 经度: 007-36E, 海拔: 238米

当前天气观测

该预报发布于1小时和0分钟前的23:56 UTC
风速4节,风向
温度 5°C
湿度 100%
气压 1003 hPa
能见度10公里或以上
阴天层高于2000英尺

METAR: ETAR 132356Z 17004KT 9999 OVC020 05/05 A2961 RMK AO2A CIG 019 RWY08 SLP038 T00520045 10053 20046 57014 $

时间: 01:56 (00:56 UTC)

预报

该预报发布于23分钟前的00:33 UTC
预报有效从14日的 00点(UTC)到 14日的 24点(UTC)
风速6节,风向多变
能见度10公里或以上
阴天层高于2000英尺
成为
从 14日的 03点(UTC)到 14日的 04点(UTC)
风速6节,风向多变
能见度10公里或以上
散云层高于1000英尺
散云层高于3000英尺
成为
从 14日的 08点(UTC)到 14日的 09点(UTC)
风速9节,风向南转南东
能见度10公里或以上
多云层高于6000英尺
成为
从 14日的 18点(UTC)到 14日的 19点(UTC)
风速12节,风向东转东北
能见度10公里或以上
散云层高于2000英尺
多云层高于5000英尺

TAF: ETAR 140033Z 1400/1424 VRB06KT 9999 OVC020 QNH2958INS BECMG 1403/1404 VRB06KT 9999 SCT010 SCT030 QNH2956INS BECMG 1408/1409 16009KT 9999 BKN060 QNH2957INS BECMG 1418/1419 06012KT 9999 SCT020 BKN050 QNH2948INS TX06/1412Z TN02/1406Z

超过4000个机场的气象观测和天气预报(METAR&TAF报告)。

可查询的气象台以黄色和红色小点在地图上表示。

将鼠标移到小点上方,可查看气象台名称。

然后点击查看天气观测和预报。

如需切换地图:点击带黑十字的绿色按钮放大地图;点击带横线的绿色按钮缩小地图;或者点击绿色箭头查看邻近地区的地图。


METAR-TAF: